Terminal Aerodrome Forecast
Issued by NWS

Home | Current Version | Previous Version | Text Only | Print | Product List | Glossary On
Versions: 1 2 3 4 5 6 7 8 9 10 11 12 13 14 15 16 17
411
FTAK31 PAJN 240521
TAFAKT
TAF
PAKT 240521Z 2406/2506 14006KT P6SM BKN120
     FM241500 14008KT P6SM VCSH BKN050 OVC100
     FM250500 15006KT P6SM VCSH BKN025 BKN070
      AMD LTD TO CLD VIS AND WIND 2406/2415=

USA.gov is the U.S. government's official web portal to all federal, state and local government web resources and services.